Time;durP1;ratioP1;P1;durP2;ratioP2;P2;SDS_P1;SDS_P2;PMS_P1;PMS_P2;Temp;Humidity;BMP_temperature;BMP_pressure;BME280_temperature;BME280_humidity;BME280_pressure;Samples;Min_cycle;Max_cycle;Signal;HPM_P1;HPM_P2
2022/04/30 00:01:03;;;;;;;8.83;6.27;;;;;;;;;;4931920;28;20225;-76
2022/04/30 00:03:31;;;;;;;11.60;6.23;;;;;;;;;;4951926;28;20420;-76
2022/04/30 00:05:59;;;;;;;9.93;6.27;;;;;;;;;;4972374;28;21072;-76
2022/04/30 00:08:24;;;;;;;10.13;6.47;;;;;;;;;;4974308;28;20714;-76
2022/04/30 00:10:54;;;;;;;12.10;7.00;;;;;;;;;;4952626;28;20287;-75
2022/04/30 00:13:23;;;;;;;8.33;6.03;;;;;;;;;;4972131;28;20225;-76
2022/04/30 00:15:48;;;;;;;9.40;6.87;;;;;;;;;;4978973;28;20781;-76
2022/04/30 00:18:16;;;;;;;11.67;7.23;;;;;;;;;;4945249;28;20257;-77
2022/04/30 00:20:49;;;;;;;10.30;7.00;;;;;;;;;;4944001;28;20229;-76
2022/04/30 00:23:20;;;;;;;11.40;7.20;;;;;;;;;;4939107;28;20222;-76
2022/04/30 00:25:52;;;;;;;11.67;7.23;;;;;;;;;;4960675;28;20277;-76
2022/04/30 00:28:20;;;;;;;10.60;7.27;;;;;;;;;;4933037;28;20237;-76
2022/04/30 00:30:51;;;;;;;10.73;7.17;;;;;;;;;;4933854;28;20741;-76
2022/04/30 00:33:16;;;;;;;11.43;7.13;;;;;;;;;;4946256;28;20226;-76
2022/04/30 00:35:42;;;;;;;10.93;7.53;;;;;;;;;;4942040;28;20226;-76
2022/04/30 00:38:11;;;;;;;10.90;7.20;;;;;;;;;;4962013;28;20225;-75
2022/04/30 00:40:37;;;;;;;8.60;7.37;;;;;;;;;;4987893;28;20286;-76
2022/04/30 00:43:05;;;;;;;13.13;7.73;;;;;;;;;;4961730;28;20671;-76
2022/04/30 00:45:35;;;;;;;11.43;7.93;;;;;;;;;;4997747;28;20260;-75
2022/04/30 00:48:03;;;;;;;13.77;7.67;;;;;;;;;;4968893;28;20222;-75
2022/04/30 00:50:29;;;;;;;9.83;7.87;;;;;;;;;;4971989;28;20313;-75
2022/04/30 00:52:56;;;;;;;12.03;7.97;;;;;;;;;;4961218;28;20384;-76
2022/04/30 00:55:22;;;;;;;11.63;8.23;;;;;;;;;;4940831;28;20225;-76
2022/04/30 00:57:49;;;;;;;12.10;8.27;;;;;;;;;;4982590;28;20222;-76
2022/04/30 01:00:15;;;;;;;11.33;8.20;;;;;;;;;;4936119;28;20296;-76
2022/04/30 01:03:04;;;;;;;12.40;8.60;;;;;;;;;;4968051;28;20292;-76
2022/04/30 01:05:43;;;;;;;11.00;8.73;;;;;;;;;;4936414;28;20642;-75
2022/04/30 01:08:13;;;;;;;15.40;8.47;;;;;;;;;;4939098;28;20300;-75
2022/04/30 01:10:38;;;;;;;15.50;8.33;;;;;;;;;;4947455;28;20253;-76
2022/04/30 01:13:04;;;;;;;10.73;8.13;;;;;;;;;;4945868;28;20320;-76
2022/04/30 01:15:29;;;;;;;9.77;7.73;;;;;;;;;;4939027;28;20272;-75
2022/04/30 01:17:55;;;;;;;12.40;8.30;;;;;;;;;;4956888;28;20225;-75
2022/04/30 01:20:23;;;;;;;13.07;7.57;;;;;;;;;;4949153;28;20290;-76
2022/04/30 01:23:04;;;;;;;13.33;8.03;;;;;;;;;;4945685;28;20292;-75
2022/04/30 01:25:32;;;;;;;12.37;7.70;;;;;;;;;;4931539;28;20221;-75
2022/04/30 01:27:59;;;;;;;17.23;7.70;;;;;;;;;;4954935;28;20241;-75
2022/04/30 01:30:27;;;;;;;10.90;7.47;;;;;;;;;;4948930;28;20239;-75
2022/04/30 01:38:27;;;;;;;11.37;7.80;;;;;;;;;;4942186;28;20229;-76
2022/04/30 01:40:53;;;;;;;12.97;8.37;;;;;;;;;;4955713;28;20740;-76
2022/04/30 01:43:19;;;;;;;10.73;8.10;;;;;;;;;;4946758;28;20235;-75
2022/04/30 01:45:44;;;;;;;9.90;8.30;;;;;;;;;;4934315;28;20657;-76
2022/04/30 01:48:14;;;;;;;11.70;8.30;;;;;;;;;;4953703;28;20217;-76
2022/04/30 01:50:41;;;;;;;10.20;7.90;;;;;;;;;;4947471;28;20245;-75
2022/04/30 01:53:06;;;;;;;10.37;8.10;;;;;;;;;;4964281;28;20249;-76
2022/04/30 01:55:32;;;;;;;10.50;7.93;;;;;;;;;;4933698;28;20249;-76
2022/04/30 01:58:07;;;;;;;13.00;8.33;;;;;;;;;;4964361;28;20238;-76
2022/04/30 02:00:32;;;;;;;12.97;8.53;;;;;;;;;;4923322;28;20225;-76
2022/04/30 02:03:06;;;;;;;14.47;8.70;;;;;;;;;;4945863;28;20233;-76
2022/04/30 02:05:32;;;;;;;12.03;8.13;;;;;;;;;;4940771;28;20214;-76
2022/04/30 02:07:57;;;;;;;11.20;8.60;;;;;;;;;;4968588;28;20229;-76
2022/04/30 02:10:27;;;;;;;12.00;9.20;;;;;;;;;;4989095;28;20225;-75
2022/04/30 02:12:55;;;;;;;12.23;9.30;;;;;;;;;;4948796;28;20256;-75
2022/04/30 02:15:25;;;;;;;14.83;8.60;;;;;;;;;;4947948;28;20334;-75
2022/04/30 02:17:55;;;;;;;14.93;8.97;;;;;;;;;;4939784;28;20301;-75
2022/04/30 02:20:25;;;;;;;13.07;9.00;;;;;;;;;;4971277;28;20221;-75
2022/04/30 02:22:57;;;;;;;10.90;8.53;;;;;;;;;;4951912;28;20222;-75
2022/04/30 02:25:25;;;;;;;9.17;8.27;;;;;;;;;;4985422;28;20247;-76
2022/04/30 02:27:52;;;;;;;9.50;8.43;;;;;;;;;;4951596;28;20210;-76
2022/04/30 02:30:19;;;;;;;12.83;8.83;;;;;;;;;;4970830;28;20273;-76
2022/04/30 02:32:52;;;;;;;16.97;8.90;;;;;;;;;;4939590;28;20666;-76
2022/04/30 02:35:19;;;;;;;11.73;9.07;;;;;;;;;;4966380;28;20225;-75
2022/04/30 02:37:45;;;;;;;12.70;8.90;;;;;;;;;;4956907;28;20582;-76
2022/04/30 02:40:12;;;;;;;14.37;8.87;;;;;;;;;;4949441;28;20226;-75
2022/04/30 02:42:41;;;;;;;11.27;9.80;;;;;;;;;;4950398;28;20237;-75
2022/04/30 02:45:09;;;;;;;11.27;9.13;;;;;;;;;;4970213;28;20233;-76
2022/04/30 02:47:36;;;;;;;15.73;9.80;;;;;;;;;;4936909;28;20233;-76
2022/04/30 02:50:02;;;;;;;12.27;9.87;;;;;;;;;;4944596;28;20638;-76
2022/04/30 02:52:30;;;;;;;10.60;9.23;;;;;;;;;;4965841;28;20236;-75
2022/04/30 02:54:56;;;;;;;13.00;9.97;;;;;;;;;;4965098;28;20595;-76
2022/04/30 02:57:23;;;;;;;13.93;9.80;;;;;;;;;;4966720;28;20288;-76
2022/04/30 02:59:54;;;;;;;12.50;9.17;;;;;;;;;;4955878;28;20248;-76
2022/04/30 03:02:41;;;;;;;13.23;9.83;;;;;;;;;;4989399;28;20221;-76
2022/04/30 03:05:14;;;;;;;14.90;10.20;;;;;;;;;;4943934;28;20296;-76
2022/04/30 03:07:40;;;;;;;12.80;9.97;;;;;;;;;;4971825;28;20319;-76
2022/04/30 03:10:06;;;;;;;11.67;10.30;;;;;;;;;;4949771;28;20229;-76
2022/04/30 03:12:34;;;;;;;13.17;10.83;;;;;;;;;;4951306;28;20298;-76
2022/04/30 03:15:00;;;;;;;13.00;10.80;;;;;;;;;;4960658;28;20309;-76
2022/04/30 03:23:00;;;;;;;11.60;10.10;;;;;;;;;;4972821;28;20225;-76
2022/04/30 03:25:30;;;;;;;14.00;10.17;;;;;;;;;;4936918;28;20272;-76
2022/04/30 03:27:58;;;;;;;13.07;10.33;;;;;;;;;;4973240;28;20230;-76
2022/04/30 03:30:23;;;;;;;12.53;10.63;;;;;;;;;;4959008;28;20674;-75
2022/04/30 03:32:49;;;;;;;15.80;11.17;;;;;;;;;;4969875;28;20245;-76
2022/04/30 03:35:15;;;;;;;11.87;10.33;;;;;;;;;;4991188;28;20313;-76
2022/04/30 03:37:42;;;;;;;14.73;10.53;;;;;;;;;;4950288;28;20241;-75
2022/04/30 03:40:09;;;;;;;14.47;11.10;;;;;;;;;;4968171;28;20229;-77
2022/04/30 03:42:37;;;;;;;15.30;10.90;;;;;;;;;;4982763;28;20248;-77
2022/04/30 03:45:08;;;;;;;12.73;10.50;;;;;;;;;;4949956;28;20300;-75
2022/04/30 03:47:33;;;;;;;11.63;10.43;;;;;;;;;;4960097;28;20552;-75
2022/04/30 03:50:01;;;;;;;16.17;11.37;;;;;;;;;;4947360;28;20316;-74
2022/04/30 03:52:30;;;;;;;13.40;10.53;;;;;;;;;;4968381;28;20248;-76
2022/04/30 03:54:58;;;;;;;13.77;9.47;;;;;;;;;;4941744;28;20784;-76
2022/04/30 03:57:28;;;;;;;20.53;11.57;;;;;;;;;;4940783;28;20308;-76
2022/04/30 03:59:54;;;;;;;11.17;9.87;;;;;;;;;;4963798;28;20317;-76
2022/04/30 04:02:22;;;;;;;13.17;10.00;;;;;;;;;;4959369;28;20320;-75
2022/04/30 04:04:49;;;;;;;14.47;10.37;;;;;;;;;;4956914;28;20269;-75
2022/04/30 04:07:15;;;;;;;12.80;10.23;;;;;;;;;;4952426;28;20676;-75
2022/04/30 04:09:43;;;;;;;12.07;9.80;;;;;;;;;;4950197;28;20265;-75
2022/04/30 04:12:09;;;;;;;14.30;9.50;;;;;;;;;;4950542;28;21185;-74
2022/04/30 04:20:03;;;;;;;13.17;9.93;;;;;;;;;;4954215;28;20712;-75
2022/04/30 04:22:31;;;;;;;12.90;9.90;;;;;;;;;;4938659;28;20309;-76
2022/04/30 04:27:43;;;;;;;12.83;9.60;;;;;;;;;;4954021;28;20280;-76
2022/04/30 04:30:09;;;;;;;11.07;9.33;;;;;;;;;;4925756;28;20230;-77
2022/04/30 04:32:34;;;;;;;13.50;9.70;;;;;;;;;;4946571;28;20228;-76
2022/04/30 04:35:00;;;;;;;12.43;8.97;;;;;;;;;;4964591;28;20635;-77
2022/04/30 04:37:25;;;;;;;16.07;10.17;;;;;;;;;;4937344;28;20630;-76
2022/04/30 04:39:51;;;;;;;10.90;9.67;;;;;;;;;;4965262;28;20221;-76
2022/04/30 04:42:19;;;;;;;11.90;9.00;;;;;;;;;;4978851;28;20320;-76
2022/04/30 04:44:46;;;;;;;12.37;9.00;;;;;;;;;;4934046;28;20312;-76
2022/04/30 04:47:14;;;;;;;9.73;8.57;;;;;;;;;;4935130;28;20217;-76
2022/04/30 04:49:40;;;;;;;10.60;9.10;;;;;;;;;;4926603;28;20723;-77
2022/04/30 04:52:08;;;;;;;10.57;9.23;;;;;;;;;;4971556;28;20707;-75
2022/04/30 04:54:36;;;;;;;10.53;8.63;;;;;;;;;;4957380;28;20213;-76
2022/04/30 04:57:01;;;;;;;12.53;9.27;;;;;;;;;;4950798;28;20217;-76
2022/04/30 04:59:29;;;;;;;10.90;8.57;;;;;;;;;;4973706;28;20616;-75
2022/04/30 05:01:55;;;;;;;11.47;9.43;;;;;;;;;;4960025;28;20250;-76
2022/04/30 05:04:20;;;;;;;10.13;8.40;;;;;;;;;;4988385;28;20756;-76
2022/04/30 05:06:48;;;;;;;11.23;8.40;;;;;;;;;;4983309;28;20860;-74
2022/04/30 05:09:14;;;;;;;10.77;8.70;;;;;;;;;;4964768;28;20312;-76
2022/04/30 05:11:42;;;;;;;12.73;8.40;;;;;;;;;;4949936;28;20232;-75
2022/04/30 05:14:08;;;;;;;10.97;8.40;;;;;;;;;;4968289;28;20316;-75
2022/04/30 05:16:34;;;;;;;10.57;8.20;;;;;;;;;;4956889;28;20360;-76
2022/04/30 05:19:04;;;;;;;9.70;8.17;;;;;;;;;;4953179;28;20244;-77
2022/04/30 05:21:29;;;;;;;9.07;7.67;;;;;;;;;;4943368;28;20241;-77
2022/04/30 05:23:57;;;;;;;9.20;8.17;;;;;;;;;;4948803;28;20232;-76
2022/04/30 05:26:23;;;;;;;11.37;8.30;;;;;;;;;;4932820;28;20396;-76
2022/04/30 05:28:51;;;;;;;10.60;8.40;;;;;;;;;;4970154;28;20229;-78
2022/04/30 05:31:17;;;;;;;10.40;8.07;;;;;;;;;;4989354;28;20222;-76
2022/04/30 05:33:42;;;;;;;9.20;7.80;;;;;;;;;;4946647;28;20650;-76
2022/04/30 05:36:10;;;;;;;10.40;8.30;;;;;;;;;;4950194;28;20218;-77
2022/04/30 05:38:38;;;;;;;10.47;8.23;;;;;;;;;;4963584;28;20233;-76
2022/04/30 05:41:04;;;;;;;12.90;9.50;;;;;;;;;;4964513;28;20657;-75
2022/04/30 05:43:36;;;;;;;11.57;9.27;;;;;;;;;;4951809;28;20222;-75
2022/04/30 05:46:06;;;;;;;10.33;8.50;;;;;;;;;;4924949;28;20352;-75
2022/04/30 05:48:32;;;;;;;10.40;8.67;;;;;;;;;;4960906;28;20296;-75
2022/04/30 05:50:59;;;;;;;12.57;9.00;;;;;;;;;;4940424;28;20279;-76
2022/04/30 05:53:27;;;;;;;11.70;9.20;;;;;;;;;;4974731;28;20247;-75
2022/04/30 05:55:53;;;;;;;11.77;9.33;;;;;;;;;;4954470;28;20225;-77
2022/04/30 05:58:18;;;;;;;13.10;9.33;;;;;;;;;;4971415;28;20652;-75
2022/04/30 06:00:44;;;;;;;12.23;9.50;;;;;;;;;;4957096;28;20730;-75
2022/04/30 06:03:14;;;;;;;15.00;9.10;;;;;;;;;;4962687;28;20213;-75
2022/04/30 06:05:40;;;;;;;12.47;9.10;;;;;;;;;;4952691;28;20225;-75
2022/04/30 06:08:08;;;;;;;12.80;9.57;;;;;;;;;;4940624;28;20267;-75
2022/04/30 06:10:33;;;;;;;14.83;10.50;;;;;;;;;;4925963;28;20213;-75
2022/04/30 06:12:59;;;;;;;13.33;9.60;;;;;;;;;;4946883;28;20696;-75
2022/04/30 06:15:28;;;;;;;12.03;10.00;;;;;;;;;;4941500;28;20221;-75
2022/04/30 06:17:53;;;;;;;12.40;9.70;;;;;;;;;;4956645;28;20221;-76
2022/04/30 06:20:25;;;;;;;12.77;9.80;;;;;;;;;;4951677;28;20735;-75
2022/04/30 06:22:59;;;;;;;11.13;9.93;;;;;;;;;;4944231;28;20280;-76
2022/04/30 06:25:30;;;;;;;12.03;10.50;;;;;;;;;;4958581;28;20280;-76
2022/04/30 06:27:55;;;;;;;10.63;9.53;;;;;;;;;;4924847;28;20225;-75
2022/04/30 06:30:20;;;;;;;13.10;10.17;;;;;;;;;;4942888;28;20222;-76
2022/04/30 06:32:48;;;;;;;14.37;11.00;;;;;;;;;;4961370;28;20438;-76
2022/04/30 06:35:14;;;;;;;13.97;11.03;;;;;;;;;;4968292;28;20228;-76
2022/04/30 06:37:42;;;;;;;14.83;11.63;;;;;;;;;;4972210;28;20233;-76
2022/04/30 06:40:08;;;;;;;13.90;11.33;;;;;;;;;;4983367;28;20613;-76
2022/04/30 06:42:44;;;;;;;13.90;10.57;;;;;;;;;;4973578;28;20229;-75
2022/04/30 06:45:10;;;;;;;13.10;10.60;;;;;;;;;;4986143;28;20221;-75
2022/04/30 06:47:39;;;;;;;12.53;10.83;;;;;;;;;;4972352;28;20221;-76
2022/04/30 06:50:05;;;;;;;16.60;10.83;;;;;;;;;;4969057;28;20228;-75
2022/04/30 06:52:33;;;;;;;14.00;10.43;;;;;;;;;;4954530;28;20611;-76
2022/04/30 06:57:45;;;;;;;11.30;10.10;;;;;;;;;;4955391;28;20230;-78
2022/04/30 07:02:59;;;;;;;13.53;10.43;;;;;;;;;;4957895;28;20233;-78
2022/04/30 07:05:27;;;;;;;12.13;9.90;;;;;;;;;;4985191;28;20245;-77
2022/04/30 07:07:55;;;;;;;11.87;9.60;;;;;;;;;;4965380;28;20213;-77
2022/04/30 07:10:22;;;;;;;10.67;8.53;;;;;;;;;;4973423;28;20226;-75
2022/04/30 07:12:48;;;;;;;10.93;8.07;;;;;;;;;;4964720;28;20233;-77
2022/04/30 07:15:14;;;;;;;12.17;8.93;;;;;;;;;;4966059;28;20225;-77
2022/04/30 07:17:42;;;;;;;10.50;7.87;;;;;;;;;;4948813;28;20233;-76
2022/04/30 07:20:09;;;;;;;7.50;6.57;;;;;;;;;;4935651;28;20589;-77
2022/04/30 07:22:35;;;;;;;8.87;6.10;;;;;;;;;;4964753;28;20222;-77
2022/04/30 07:25:05;;;;;;;9.00;7.23;;;;;;;;;;4954177;28;20222;-77
2022/04/30 07:27:30;;;;;;;11.10;7.27;;;;;;;;;;4970210;28;20217;-78
2022/04/30 07:29:58;;;;;;;7.07;6.07;;;;;;;;;;4989085;28;20213;-78
2022/04/30 07:32:23;;;;;;;9.83;6.23;;;;;;;;;;4984447;28;20236;-76
2022/04/30 07:34:53;;;;;;;8.10;6.73;;;;;;;;;;4967528;28;20249;-78
2022/04/30 07:37:19;;;;;;;8.60;5.63;;;;;;;;;;4982238;28;20229;-77
2022/04/30 07:39:44;;;;;;;7.87;5.70;;;;;;;;;;4975175;28;20221;-77
2022/04/30 07:42:12;;;;;;;8.03;5.40;;;;;;;;;;4972054;28;20217;-77
2022/04/30 07:44:38;;;;;;;9.23;5.07;;;;;;;;;;4929502;28;20227;-77
2022/04/30 07:47:04;;;;;;;5.77;4.87;;;;;;;;;;4974093;28;20230;-76
2022/04/30 07:49:31;;;;;;;5.23;4.57;;;;;;;;;;4958567;28;20374;-76
2022/04/30 07:51:56;;;;;;;4.90;4.40;;;;;;;;;;4983771;28;20804;-75
2022/04/30 07:54:22;;;;;;;6.13;4.23;;;;;;;;;;4973429;28;20225;-76
2022/04/30 07:57:00;;;;;;;6.87;3.97;;;;;;;;;;4949362;28;20260;-77
2022/04/30 07:59:25;;;;;;;6.70;3.77;;;;;;;;;;4970728;28;20220;-76
2022/04/30 08:01:55;;;;;;;8.93;4.47;;;;;;;;;;4944541;28;20224;-76
2022/04/30 08:04:23;;;;;;;5.40;4.33;;;;;;;;;;4960036;28;20292;-76
2022/04/30 08:06:51;;;;;;;4.00;3.60;;;;;;;;;;4979951;28;20308;-77
2022/04/30 08:09:17;;;;;;;5.47;3.73;;;;;;;;;;4983522;28;20441;-76
2022/04/30 08:11:44;;;;;;;5.03;4.10;;;;;;;;;;4978674;28;20226;-76
2022/04/30 08:14:12;;;;;;;5.63;4.13;;;;;;;;;;4963399;28;20217;-77
2022/04/30 08:16:40;;;;;;;6.00;4.13;;;;;;;;;;4930312;28;20759;-77
2022/04/30 08:19:06;;;;;;;5.90;4.57;;;;;;;;;;4987710;28;20711;-75
2022/04/30 08:21:34;;;;;;;5.73;3.97;;;;;;;;;;4967654;28;20240;-76
2022/04/30 08:24:02;;;;;;;5.97;4.20;;;;;;;;;;4970639;28;20596;-76
2022/04/30 08:26:28;;;;;;;6.07;4.10;;;;;;;;;;4931623;28;20218;-77
2022/04/30 08:28:59;;;;;;;6.40;4.30;;;;;;;;;;4991098;28;20256;-76
2022/04/30 08:31:27;;;;;;;4.50;4.00;;;;;;;;;;4986687;28;20229;-77
2022/04/30 08:33:53;;;;;;;5.37;3.70;;;;;;;;;;4956636;28;20279;-77
2022/04/30 08:36:20;;;;;;;7.13;4.13;;;;;;;;;;4954931;28;20222;-76
2022/04/30 08:38:46;;;;;;;5.93;3.83;;;;;;;;;;4959977;28;20237;-77
2022/04/30 08:41:16;;;;;;;5.53;3.80;;;;;;;;;;4976683;28;20658;-77
2022/04/30 08:43:48;;;;;;;5.07;4.10;;;;;;;;;;4951625;28;20229;-77
2022/04/30 08:46:14;;;;;;;6.37;4.00;;;;;;;;;;4929198;28;20242;-76
2022/04/30 08:48:48;;;;;;;5.70;3.80;;;;;;;;;;4975997;28;20291;-76
2022/04/30 08:51:16;;;;;;;4.77;3.70;;;;;;;;;;4950688;28;20249;-77
2022/04/30 08:53:41;;;;;;;4.03;3.60;;;;;;;;;;4963187;28;20225;-76
2022/04/30 08:56:07;;;;;;;6.20;3.77;;;;;;;;;;4970402;28;20271;-76
2022/04/30 08:58:35;;;;;;;4.20;3.57;;;;;;;;;;4948226;28;20238;-76
2022/04/30 09:01:02;;;;;;;3.40;3.10;;;;;;;;;;4936299;28;20819;-75
2022/04/30 09:03:33;;;;;;;4.30;3.07;;;;;;;;;;4929562;28;20232;-76
2022/04/30 09:06:01;;;;;;;4.00;2.70;;;;;;;;;;4968613;28;20236;-76
2022/04/30 09:08:27;;;;;;;3.90;3.33;;;;;;;;;;4941227;28;20222;-76
2022/04/30 09:11:06;;;;;;;5.13;2.70;;;;;;;;;;4930302;28;20226;-74
2022/04/30 09:13:32;;;;;;;5.57;3.00;;;;;;;;;;4966915;28;20217;-76
2022/04/30 09:16:00;;;;;;;5.37;3.00;;;;;;;;;;4966373;28;20324;-76
2022/04/30 09:18:28;;;;;;;5.20;2.73;;;;;;;;;;4981066;28;20244;-75
2022/04/30 09:20:54;;;;;;;4.10;3.37;;;;;;;;;;4967486;28;20229;-75
2022/04/30 09:23:37;;;;;;;7.17;3.30;;;;;;;;;;4952608;28;20655;-77
2022/04/30 09:26:06;;;;;;;4.00;3.20;;;;;;;;;;4972741;28;20265;-75
2022/04/30 09:28:37;;;;;;;9.30;6.27;;;;;;;;;;4931693;28;20230;-76
2022/04/30 09:31:07;;;;;;;5.10;4.40;;;;;;;;;;4940242;28;20755;-77
2022/04/30 09:33:34;;;;;;;5.43;3.10;;;;;;;;;;4983862;28;20225;-77
2022/04/30 09:38:49;;;;;;;5.40;4.40;;;;;;;;;;4972620;28;20234;-76
2022/04/30 09:41:26;;;;;;;5.03;2.87;;;;;;;;;;4950069;28;20521;-76
2022/04/30 09:44:18;;;;;;;4.32;3.08;;;;;;;;;;4977979;28;20229;-76
2022/04/30 09:46:46;;;;;;;6.25;2.97;;;;;;;;;;4936348;28;20654;-76
2022/04/30 09:54:42;;;;;;;5.70;3.08;;;;;;;;;;4971745;28;20229;-77
2022/04/30 09:57:09;;;;;;;4.80;2.90;;;;;;;;;;4987649;28;20239;-78
2022/04/30 09:59:38;;;;;;;3.78;3.03;;;;;;;;;;4971458;28;20260;-77
2022/04/30 10:02:05;;;;;;;4.63;3.10;;;;;;;;;;4952445;28;20604;-73
2022/04/30 10:04:31;;;;;;;5.40;2.83;;;;;;;;;;4974383;28;20229;-74
2022/04/30 10:06:59;;;;;;;9.93;3.47;;;;;;;;;;4923914;28;20214;-72
2022/04/30 10:09:35;;;;;;;10.43;4.03;;;;;;;;;;4979646;28;20819;-75
2022/04/30 10:12:11;;;;;;;17.70;4.35;;;;;;;;;;4954779;28;20228;-75
2022/04/30 10:14:58;;;;;;;17.33;4.90;;;;;;;;;;4980631;28;20236;-76
2022/04/30 10:17:29;;;;;;;4.77;3.30;;;;;;;;;;4983407;23;20239;-75
2022/04/30 10:20:06;;;;;;;4.57;3.17;;;;;;;;;;4992978;28;20747;-74
2022/04/30 10:22:36;;;;;;;3.70;2.87;;;;;;;;;;4989663;28;20284;-76
2022/04/30 10:25:03;;;;;;;6.43;4.10;;;;;;;;;;4993577;28;20229;-76
2022/04/30 10:27:43;;;;;;;9.27;6.17;;;;;;;;;;4987579;28;20233;-74
2022/04/30 10:30:29;;;;;;;4.03;3.00;;;;;;;;;;4977333;28;20255;-75
2022/04/30 10:33:00;;;;;;;6.27;3.40;;;;;;;;;;4981130;28;20226;-75
2022/04/30 10:35:33;;;;;;;3.47;3.00;;;;;;;;;;4984167;28;20220;-78
2022/04/30 10:38:06;;;;;;;7.90;6.13;;;;;;;;;;4977867;28;20751;-76
2022/04/30 10:40:48;;;;;;;14.47;10.50;;;;;;;;;;4983554;28;20276;-75
2022/04/30 10:43:23;;;;;;;6.47;4.43;;;;;;;;;;4990939;28;20217;-75
2022/04/30 10:45:48;;;;;;;5.87;3.83;;;;;;;;;;4985448;28;20314;-74
2022/04/30 10:48:14;;;;;;;12.87;9.23;;;;;;;;;;4972581;28;20691;-74
2022/04/30 10:50:45;;;;;;;6.27;3.40;;;;;;;;;;4973322;28;20220;-75
2022/04/30 10:53:13;;;;;;;6.68;3.97;;;;;;;;;;4984351;28;20816;-75
2022/04/30 10:55:39;;;;;;;5.27;3.83;;;;;;;;;;4964641;28;20304;-75
2022/04/30 10:58:04;;;;;;;4.95;3.80;;;;;;;;;;4974446;28;20644;-77
2022/04/30 11:00:30;;;;;;;7.23;3.83;;;;;;;;;;4986441;28;20241;-75
2022/04/30 11:03:09;;;;;;;7.50;3.50;;;;;;;;;;4985683;28;20223;-75
2022/04/30 11:05:34;;;;;;;4.32;3.60;;;;;;;;;;4960558;28;20660;-74
2022/04/30 11:08:03;;;;;;;4.05;3.65;;;;;;;;;;4976073;28;20221;-77
2022/04/30 11:10:31;;;;;;;4.77;3.40;;;;;;;;;;4971264;28;20641;-77
2022/04/30 11:13:08;;;;;;;6.80;3.43;;;;;;;;;;4967197;28;20731;-75
2022/04/30 11:15:34;;;;;;;6.37;3.40;;;;;;;;;;4972874;28;20217;-75
2022/04/30 11:18:05;;;;;;;6.03;3.17;;;;;;;;;;4972899;28;20225;-74
2022/04/30 11:20:33;;;;;;;4.70;3.37;;;;;;;;;;4991588;28;20225;-76
2022/04/30 11:23:00;;;;;;;4.90;3.00;;;;;;;;;;4975886;28;20225;-76
2022/04/30 11:25:35;;;;;;;3.87;2.90;;;;;;;;;;4976479;28;20283;-77
2022/04/30 11:28:01;;;;;;;4.47;2.80;;;;;;;;;;4984247;28;20225;-76
2022/04/30 11:30:27;;;;;;;4.18;2.70;;;;;;;;;;4969970;28;20225;-76
2022/04/30 11:32:52;;;;;;;4.88;2.67;;;;;;;;;;4984268;28;20235;-77
2022/04/30 11:35:20;;;;;;;4.18;2.90;;;;;;;;;;4977658;28;20299;-78
2022/04/30 11:37:45;;;;;;;3.67;2.40;;;;;;;;;;4985061;28;20222;-77
2022/04/30 11:40:11;;;;;;;3.28;2.40;;;;;;;;;;4973832;28;20718;-78
2022/04/30 11:42:39;;;;;;;3.80;2.40;;;;;;;;;;4995209;28;20721;-78
2022/04/30 11:45:05;;;;;;;4.53;2.10;;;;;;;;;;5005225;28;20316;-76
2022/04/30 11:47:31;;;;;;;4.40;2.40;;;;;;;;;;4968392;28;20264;-76
2022/04/30 11:50:10;;;;;;;3.22;2.08;;;;;;;;;;4960694;28;20221;-76
2022/04/30 11:52:35;;;;;;;2.42;2.15;;;;;;;;;;4952603;28;20313;-77
2022/04/30 11:55:05;;;;;;;4.35;2.40;;;;;;;;;;4973851;28;20722;-77
2022/04/30 11:57:35;;;;;;;3.20;2.40;;;;;;;;;;4983978;28;20300;-76
2022/04/30 12:00:01;;;;;;;4.72;2.42;;;;;;;;;;4972545;28;20315;-76
2022/04/30 12:02:32;;;;;;;4.22;2.42;;;;;;;;;;4958816;28;20746;-77
2022/04/30 12:05:01;;;;;;;3.67;2.40;;;;;;;;;;5005529;28;20238;-76
2022/04/30 12:07:37;;;;;;;3.28;2.05;;;;;;;;;;4977357;28;20600;-77
2022/04/30 12:10:03;;;;;;;5.32;1.80;;;;;;;;;;4974432;28;20229;-76
2022/04/30 12:12:28;;;;;;;3.40;1.85;;;;;;;;;;4957228;28;20228;-76
2022/04/30 12:14:55;;;;;;;2.72;1.70;;;;;;;;;;4959969;28;20228;-77
2022/04/30 12:17:32;;;;;;;2.25;1.80;;;;;;;;;;4979078;28;20220;-76
2022/04/30 12:25:47;;;;;;;3.35;1.70;;;;;;;;;;4971670;28;20224;-76
2022/04/30 12:28:15;;;;;;;3.78;1.80;;;;;;;;;;4955984;28;20275;-76
2022/04/30 12:30:53;;;;;;;2.20;1.50;;;;;;;;;;4984537;28;20299;-77
2022/04/30 12:33:21;;;;;;;8.93;3.10;;;;;;;;;;4981282;28;20240;-77
2022/04/30 12:35:56;;;;;;;3.47;1.77;;;;;;;;;;4996089;28;20264;-76
2022/04/30 12:38:23;;;;;;;2.97;1.40;;;;;;;;;;4990772;28;20231;-75
2022/04/30 12:40:50;;;;;;;1.52;1.42;;;;;;;;;;4962248;28;20224;-77
2022/04/30 12:43:16;;;;;;;2.60;1.30;;;;;;;;;;4958427;28;20742;-76
2022/04/30 12:45:45;;;;;;;4.07;1.50;;;;;;;;;;4984103;28;20235;-76
2022/04/30 12:48:12;;;;;;;3.13;1.40;;;;;;;;;;5007150;28;20244;-76
2022/04/30 12:50:40;;;;;;;6.53;2.45;;;;;;;;;;4970942;28;20612;-76
2022/04/30 12:53:09;;;;;;;3.85;1.48;;;;;;;;;;4979531;28;20236;-76
2022/04/30 12:55:41;;;;;;;3.60;1.50;;;;;;;;;;4993374;28;20706;-76
2022/04/30 12:58:07;;;;;;;2.92;1.10;;;;;;;;;;4986024;28;20228;-77
2022/04/30 13:00:34;;;;;;;3.13;1.70;;;;;;;;;;4984322;28;20235;-76
2022/04/30 13:03:02;;;;;;;2.60;1.30;;;;;;;;;;4947275;28;20229;-76
2022/04/30 13:05:30;;;;;;;2.13;1.10;;;;;;;;;;4977386;28;20221;-76
2022/04/30 13:07:56;;;;;;;2.70;1.35;;;;;;;;;;4957838;28;20232;-76
2022/04/30 13:15:49;;;;;;;5.00;3.50;;;;;;;;;;4976104;28;20351;-75
2022/04/30 13:18:16;;;;;;;3.13;1.23;;;;;;;;;;4987717;28;20295;-75
2022/04/30 13:20:42;;;;;;;2.47;1.77;;;;;;;;;;4965848;28;20229;-75
2022/04/30 13:23:07;;;;;;;3.80;1.35;;;;;;;;;;4979285;28;20224;-76
2022/04/30 13:25:35;;;;;;;5.18;2.08;;;;;;;;;;4987706;28;20591;-77
2022/04/30 13:28:06;;;;;;;3.50;1.70;;;;;;;;;;4974548;28;20244;-75
2022/04/30 13:30:31;;;;;;;3.05;1.40;;;;;;;;;;4973594;28;20240;-77
2022/04/30 13:32:57;;;;;;;2.50;1.40;;;;;;;;;;4959863;28;20229;-77
2022/04/30 13:35:22;;;;;;;2.30;1.30;;;;;;;;;;4954847;28;20229;-76
2022/04/30 13:37:51;;;;;;;4.28;1.50;;;;;;;;;;4962479;28;20221;-77
2022/04/30 13:40:17;;;;;;;2.45;1.50;;;;;;;;;;4974859;28;20311;-77
2022/04/30 13:42:43;;;;;;;5.47;1.98;;;;;;;;;;4971586;28;20316;-77
2022/04/30 13:45:12;;;;;;;3.10;2.00;;;;;;;;;;4974430;28;20205;-77
2022/04/30 13:47:38;;;;;;;2.10;1.50;;;;;;;;;;4972483;28;20248;-77
2022/04/30 13:50:04;;;;;;;2.90;1.40;;;;;;;;;;4984719;28;20222;-76
2022/04/30 13:52:36;;;;;;;3.58;1.80;;;;;;;;;;4977054;28;20236;-77
2022/04/30 13:55:07;;;;;;;2.83;2.25;;;;;;;;;;5001915;28;20213;-76
2022/04/30 13:57:34;;;;;;;3.08;1.90;;;;;;;;;;4957417;28;20221;-76
2022/04/30 14:00:00;;;;;;;3.10;1.95;;;;;;;;;;4986223;28;20240;-77
2022/04/30 14:02:26;;;;;;;3.95;2.13;;;;;;;;;;4968629;28;20229;-77
2022/04/30 14:04:54;;;;;;;2.45;1.85;;;;;;;;;;4961241;28;20260;-77
2022/04/30 14:07:19;;;;;;;2.63;1.50;;;;;;;;;;4977473;28;20217;-78
2022/04/30 14:09:44;;;;;;;3.53;1.50;;;;;;;;;;4990961;28;20280;-78
2022/04/30 14:12:10;;;;;;;2.20;1.48;;;;;;;;;;4982338;28;20222;-77
2022/04/30 14:14:56;;;;;;;2.38;1.40;;;;;;;;;;4977535;28;20225;-78
2022/04/30 14:20:15;;;;;;;2.72;1.52;;;;;;;;;;4976060;28;20225;-79
2022/04/30 14:22:46;;;;;;;2.95;1.67;;;;;;;;;;4995611;28;20228;-79
2022/04/30 14:25:13;;;;;;;3.33;1.55;;;;;;;;;;4946202;28;20344;-77
2022/04/30 14:27:42;;;;;;;3.45;1.70;;;;;;;;;;4961908;28;20234;-79
2022/04/30 14:30:08;;;;;;;2.65;1.60;;;;;;;;;;4962376;28;20236;-79
2022/04/30 14:32:41;;;;;;;2.45;1.55;;;;;;;;;;4989628;28;20244;-77
2022/04/30 14:35:07;;;;;;;3.40;1.77;;;;;;;;;;4962381;28;20229;-77
2022/04/30 14:37:35;;;;;;;5.18;1.48;;;;;;;;;;5012083;28;20702;-77
2022/04/30 14:40:02;;;;;;;3.75;2.22;;;;;;;;;;4976096;28;20704;-76
2022/04/30 14:42:31;;;;;;;3.53;2.38;;;;;;;;;;4986268;28;20282;-78
2022/04/30 14:44:56;;;;;;;4.60;2.10;;;;;;;;;;4992950;28;20723;-78
2022/04/30 14:47:22;;;;;;;5.72;2.00;;;;;;;;;;4959906;28;20255;-77
2022/04/30 14:49:48;;;;;;;4.72;3.40;;;;;;;;;;4966634;28;20220;-75
2022/04/30 14:52:13;;;;;;;2.75;2.30;;;;;;;;;;5002244;28;20217;-77
2022/04/30 14:54:41;;;;;;;4.18;2.50;;;;;;;;;;4974894;28;20247;-77
2022/04/30 14:57:09;;;;;;;4.70;3.17;;;;;;;;;;4962634;28;20243;-76
2022/04/30 14:59:37;;;;;;;4.85;2.80;;;;;;;;;;4975254;28;20235;-79
2022/04/30 15:02:03;;;;;;;4.35;2.90;;;;;;;;;;4999635;28;20221;-79
2022/04/30 15:04:31;;;;;;;4.43;2.50;;;;;;;;;;4992532;28;20232;-77
2022/04/30 15:07:00;;;;;;;2.90;2.55;;;;;;;;;;5012049;28;20249;-76
2022/04/30 15:09:28;;;;;;;2.58;2.33;;;;;;;;;;4991346;28;20224;-76
2022/04/30 15:11:54;;;;;;;4.43;2.80;;;;;;;;;;4970801;28;20766;-77
2022/04/30 15:14:19;;;;;;;3.08;2.20;;;;;;;;;;4970265;28;20209;-76
2022/04/30 15:16:47;;;;;;;2.90;2.60;;;;;;;;;;5009080;28;20311;-77
2022/04/30 15:19:13;;;;;;;2.60;2.30;;;;;;;;;;4989029;28;20325;-76
2022/04/30 15:21:39;;;;;;;4.53;2.58;;;;;;;;;;5001075;28;20240;-77
2022/04/30 15:24:07;;;;;;;4.68;2.75;;;;;;;;;;4969277;28;20668;-77
2022/04/30 15:26:37;;;;;;;2.85;2.50;;;;;;;;;;4971456;28;20224;-77
2022/04/30 15:29:10;;;;;;;4.65;2.83;;;;;;;;;;5008007;28;20224;-78